sensor_id;sensor_type;location;lat;lon;timestamp;pressure;altitude;pressure_sealevel;temperature;humidity
46408;BME280;32110;45.724;21.276;2023-07-31T00:02:22;100163.00;;;19.90;nan
46408;BME280;32110;45.724;21.276;2023-07-31T00:04:47;100160.81;;;19.92;nan
46408;BME280;32110;45.724;21.276;2023-07-31T00:07:14;100157.34;;;19.91;nan
46408;BME280;32110;45.724;21.276;2023-07-31T00:09:39;100158.66;;;19.94;nan
46408;BME280;32110;45.724;21.276;2023-07-31T00:12:05;100131.41;;;19.78;nan
46408;BME280;32110;45.724;21.276;2023-07-31T00:14:30;100143.22;;;19.91;nan
46408;BME280;32110;45.724;21.276;2023-07-31T00:16:56;100139.16;;;19.93;nan
46408;BME280;32110;45.724;21.276;2023-07-31T00:19:21;100135.41;;;19.94;nan
46408;BME280;32110;45.724;21.276;2023-07-31T00:21:46;100117.28;;;19.91;nan
46408;BME280;32110;45.724;21.276;2023-07-31T00:24:12;100130.25;;;19.98;nan
46408;BME280;32110;45.724;21.276;2023-07-31T00:26:37;100139.06;;;19.98;nan
46408;BME280;32110;45.724;21.276;2023-07-31T00:29:02;100141.94;;;20.02;nan
46408;BME280;32110;45.724;21.276;2023-07-31T00:31:28;100143.34;;;20.00;nan
46408;BME280;32110;45.724;21.276;2023-07-31T00:33:53;100149.19;;;20.02;nan
46408;BME280;32110;45.724;21.276;2023-07-31T00:36:18;100153.44;;;20.03;nan
46408;BME280;32110;45.724;21.276;2023-07-31T00:38:44;100120.13;;;19.81;nan
46408;BME280;32110;45.724;21.276;2023-07-31T00:41:09;100144.41;;;19.98;nan
46408;BME280;32110;45.724;21.276;2023-07-31T00:43:35;100151.03;;;20.01;nan
46408;BME280;32110;45.724;21.276;2023-07-31T00:46:00;100135.97;;;19.91;nan
46408;BME280;32110;45.724;21.276;2023-07-31T00:48:26;100138.38;;;19.93;nan
46408;BME280;32110;45.724;21.276;2023-07-31T00:50:51;100152.75;;;19.97;nan
46408;BME280;32110;45.724;21.276;2023-07-31T00:53:17;100150.94;;;19.92;nan
46408;BME280;32110;45.724;21.276;2023-07-31T00:55:43;100146.88;;;19.95;nan
46408;BME280;32110;45.724;21.276;2023-07-31T00:58:09;100155.41;;;19.97;nan
46408;BME280;32110;45.724;21.276;2023-07-31T01:00:34;100146.09;;;19.94;nan
46408;BME280;32110;45.724;21.276;2023-07-31T01:03:00;100134.41;;;19.90;nan
46408;BME280;32110;45.724;21.276;2023-07-31T01:05:52;100161.22;;;19.99;nan
46408;BME280;32110;45.724;21.276;2023-07-31T01:08:44;100167.97;;;19.96;nan
46408;BME280;32110;45.724;21.276;2023-07-31T01:11:17;100164.50;;;19.96;nan
46408;BME280;32110;45.724;21.276;2023-07-31T01:13:45;100155.97;;;19.94;nan
46408;BME280;32110;45.724;21.276;2023-07-31T01:16:11;100171.81;;;19.90;nan
46408;BME280;32110;45.724;21.276;2023-07-31T01:18:36;100160.41;;;19.85;nan
46408;BME280;32110;45.724;21.276;2023-07-31T01:24:17;100167.56;;;19.70;nan
46408;BME280;32110;45.724;21.276;2023-07-31T01:26:47;100159.09;;;19.68;nan
46408;BME280;32110;45.724;21.276;2023-07-31T01:29:36;100159.09;;;19.68;nan
46408;BME280;32110;45.724;21.276;2023-07-31T01:32:04;100143.91;;;19.64;nan
46408;BME280;32110;45.724;21.276;2023-07-31T01:34:32;100144.63;;;19.69;nan
46408;BME280;32110;45.724;21.276;2023-07-31T01:36:57;100136.63;;;19.69;nan
46408;BME280;32110;45.724;21.276;2023-07-31T01:39:23;100144.03;;;19.72;nan
46408;BME280;32110;45.724;21.276;2023-07-31T01:41:49;100143.47;;;19.75;nan
46408;BME280;32110;45.724;21.276;2023-07-31T01:44:14;100103.50;;;19.51;nan
46408;BME280;32110;45.724;21.276;2023-07-31T01:46:40;100136.06;;;19.67;nan
46408;BME280;32110;45.724;21.276;2023-07-31T01:49:05;100136.63;;;19.69;nan
46408;BME280;32110;45.724;21.276;2023-07-31T01:51:31;100139.00;;;19.71;nan
46408;BME280;32110;45.724;21.276;2023-07-31T01:54:00;100146.72;;;19.72;nan
46408;BME280;32110;45.724;21.276;2023-07-31T01:56:25;100147.53;;;19.73;nan
46408;BME280;32110;45.724;21.276;2023-07-31T01:58:50;100136.38;;;19.66;nan
46408;BME280;32110;45.724;21.276;2023-07-31T02:01:16;100142.19;;;19.73;nan
46408;BME280;32110;45.724;21.276;2023-07-31T02:03:41;100145.63;;;19.73;nan
46408;BME280;32110;45.724;21.276;2023-07-31T02:06:07;100142.19;;;19.73;nan
46408;BME280;32110;45.724;21.276;2023-07-31T02:08:32;100143.47;;;19.75;nan
46408;BME280;32110;45.724;21.276;2023-07-31T02:10:58;100132.38;;;19.68;nan
46408;BME280;32110;45.724;21.276;2023-07-31T02:13:23;100144.03;;;19.72;nan
46408;BME280;32110;45.724;21.276;2023-07-31T02:15:49;100138.19;;;19.70;nan
46408;BME280;32110;45.724;21.276;2023-07-31T02:18:15;100134.22;;;19.68;nan
46408;BME280;32110;45.724;21.276;2023-07-31T02:20:41;100132.41;;;19.63;nan
46408;BME280;32110;45.724;21.276;2023-07-31T02:23:06;100130.53;;;19.64;nan
46408;BME280;32110;45.724;21.276;2023-07-31T02:25:31;100127.44;;;19.57;nan
46408;BME280;32110;45.724;21.276;2023-07-31T02:27:57;100125.66;;;19.52;nan
46408;BME280;32110;45.724;21.276;2023-07-31T02:30:22;100115.91;;;19.42;nan
46408;BME280;32110;45.724;21.276;2023-07-31T02:32:47;100130.47;;;19.50;nan
46408;BME280;32110;45.724;21.276;2023-07-31T02:35:13;100111.66;;;19.41;nan
46408;BME280;32110;45.724;21.276;2023-07-31T02:37:41;100124.91;;;19.46;nan
46408;BME280;32110;45.724;21.276;2023-07-31T02:40:07;100134.03;;;19.45;nan
46408;BME280;32110;45.724;21.276;2023-07-31T02:42:32;100104.06;;;19.29;nan
46408;BME280;32110;45.724;21.276;2023-07-31T02:44:58;100135.41;;;19.43;nan
46408;BME280;32110;45.724;21.276;2023-07-31T02:47:23;100129.84;;;19.39;nan
46408;BME280;32110;45.724;21.276;2023-07-31T02:49:48;100132.81;;;19.38;nan
46408;BME280;32110;45.724;21.276;2023-07-31T02:52:14;100131.78;;;19.33;nan
46408;BME280;32110;45.724;21.276;2023-07-31T02:54:39;100106.41;;;19.17;nan
46408;BME280;32110;45.724;21.276;2023-07-31T02:57:05;100124.88;;;19.32;nan
46408;BME280;32110;45.724;21.276;2023-07-31T02:59:30;100134.19;;;19.35;nan
46408;BME280;32110;45.724;21.276;2023-07-31T03:01:55;100141.38;;;19.34;nan
46408;BME280;32110;45.724;21.276;2023-07-31T03:04:21;100126.53;;;19.28;nan
46408;BME280;32110;45.724;21.276;2023-07-31T03:06:46;100137.72;;;19.30;nan
46408;BME280;32110;45.724;21.276;2023-07-31T03:09:12;100138.00;;;19.29;nan
46408;BME280;32110;45.724;21.276;2023-07-31T03:11:37;100143.63;;;19.27;nan
46408;BME280;32110;45.724;21.276;2023-07-31T03:14:02;100132.53;;;19.20;nan
46408;BME280;32110;45.724;21.276;2023-07-31T03:16:28;100139.44;;;19.21;nan
46408;BME280;32110;45.724;21.276;2023-07-31T03:18:54;100138.16;;;19.19;nan
46408;BME280;32110;45.724;21.276;2023-07-31T03:21:19;100135.75;;;19.17;nan
46408;BME280;32110;45.724;21.276;2023-07-31T03:23:45;100143.34;;;19.10;nan
46408;BME280;32110;45.724;21.276;2023-07-31T03:26:10;100144.44;;;19.09;nan
46408;BME280;32110;45.724;21.276;2023-07-31T03:28:36;100152.19;;;19.05;nan
46408;BME280;32110;45.724;21.276;2023-07-31T03:31:01;100148.53;;;19.01;nan
46408;BME280;32110;45.724;21.276;2023-07-31T03:33:27;100151.56;;;18.95;nan
46408;BME280;32110;45.724;21.276;2023-07-31T03:35:53;100135.47;;;18.76;nan
46408;BME280;32110;45.724;21.276;2023-07-31T03:38:19;100164.16;;;18.89;nan
46408;BME280;32110;45.724;21.276;2023-07-31T03:40:44;100156.50;;;18.82;nan
46408;BME280;32110;45.724;21.276;2023-07-31T03:43:10;100161.84;;;18.82;nan
46408;BME280;32110;45.724;21.276;2023-07-31T03:45:36;100166.31;;;18.87;nan
46408;BME280;32110;45.724;21.276;2023-07-31T03:48:01;100162.69;;;18.78;nan
46408;BME280;32110;45.724;21.276;2023-07-31T03:50:27;100167.72;;;18.79;nan
46408;BME280;32110;45.724;21.276;2023-07-31T03:52:52;100162.91;;;18.81;nan
46408;BME280;32110;45.724;21.276;2023-07-31T03:55:18;100170.63;;;18.83;nan
46408;BME280;32110;45.724;21.276;2023-07-31T03:57:43;100173.25;;;18.88;nan
46408;BME280;32110;45.724;21.276;2023-07-31T04:00:09;100160.75;;;18.83;nan
46408;BME280;32110;45.724;21.276;2023-07-31T04:02:35;100183.25;;;18.96;nan
46408;BME280;32110;45.724;21.276;2023-07-31T04:05:00;100185.66;;;18.98;nan
46408;BME280;32110;45.724;21.276;2023-07-31T04:07:25;100176.59;;;18.99;nan
46408;BME280;32110;45.724;21.276;2023-07-31T04:09:51;100178.69;;;19.02;nan
46408;BME280;32110;45.724;21.276;2023-07-31T04:12:16;100172.56;;;19.01;nan
46408;BME280;32110;45.724;21.276;2023-07-31T04:14:41;100186.03;;;19.10;nan
46408;BME280;32110;45.724;21.276;2023-07-31T04:17:07;100189.00;;;19.08;nan
46408;BME280;32110;45.724;21.276;2023-07-31T04:19:32;100196.94;;;19.13;nan
46408;BME280;32110;45.724;21.276;2023-07-31T04:21:57;100194.56;;;19.12;nan
46408;BME280;32110;45.724;21.276;2023-07-31T04:24:23;100202.50;;;19.17;nan
46408;BME280;32110;45.724;21.276;2023-07-31T04:26:52;100208.28;;;19.24;nan
46408;BME280;32110;45.724;21.276;2023-07-31T04:29:17;100204.53;;;19.25;nan
46408;BME280;32110;45.724;21.276;2023-07-31T04:31:43;100194.41;;;19.22;nan
46408;BME280;32110;45.724;21.276;2023-07-31T04:34:08;100191.19;;;19.25;nan
46408;BME280;32110;45.724;21.276;2023-07-31T04:36:34;100199.91;;;19.31;nan
46408;BME280;32110;45.724;21.276;2023-07-31T04:39:00;100206.19;;;19.40;nan
46408;BME280;32110;45.724;21.276;2023-07-31T04:41:26;100203.72;;;19.44;nan
46408;BME280;32110;45.724;21.276;2023-07-31T04:43:51;100210.09;;;19.48;nan
46408;BME280;32110;45.724;21.276;2023-07-31T04:46:17;100198.91;;;19.46;nan
46408;BME280;32110;45.724;21.276;2023-07-31T04:48:42;100201.50;;;19.51;nan
46408;BME280;32110;45.724;21.276;2023-07-31T04:51:08;100199.06;;;19.54;nan
46408;BME280;32110;45.724;21.276;2023-07-31T04:53:34;100190.31;;;19.49;nan
46408;BME280;32110;45.724;21.276;2023-07-31T04:55:59;100203.97;;;19.66;nan
46408;BME280;32110;45.724;21.276;2023-07-31T04:58:25;100202.31;;;19.70;nan
46408;BME280;32110;45.724;21.276;2023-07-31T05:00:50;100205.63;;;19.81;nan
46408;BME280;32110;45.724;21.276;2023-07-31T05:03:16;100207.16;;;19.87;nan
46408;BME280;32110;45.724;21.276;2023-07-31T05:05:42;100196.03;;;19.80;nan
46408;BME280;32110;45.724;21.276;2023-07-31T05:08:07;100208.22;;;19.86;nan
46408;BME280;32110;45.724;21.276;2023-07-31T05:10:33;100198.13;;;19.83;nan
46408;BME280;32110;45.724;21.276;2023-07-31T05:12:58;100219.56;;;19.97;nan
46408;BME280;32110;45.724;21.276;2023-07-31T05:15:23;100204.25;;;19.84;nan
46408;BME280;32110;45.724;21.276;2023-07-31T05:17:49;100215.78;;;19.98;nan
46408;BME280;32110;45.724;21.276;2023-07-31T05:20:14;100214.91;;;20.03;nan
46408;BME280;32110;45.724;21.276;2023-07-31T05:22:40;100225.66;;;20.16;nan
46408;BME280;32110;45.724;21.276;2023-07-31T05:25:06;100213.75;;;20.23;nan
46408;BME280;32110;45.724;21.276;2023-07-31T05:27:32;100214.19;;;20.30;nan
46408;BME280;32110;45.724;21.276;2023-07-31T05:29:57;100229.66;;;20.47;nan
46408;BME280;32110;45.724;21.276;2023-07-31T05:32:23;100222.22;;;20.44;nan
46408;BME280;32110;45.724;21.276;2023-07-31T05:34:51;100232.31;;;20.47;nan
46408;BME280;32110;45.724;21.276;2023-07-31T05:37:16;100239.13;;;20.58;nan
46408;BME280;32110;45.724;21.276;2023-07-31T05:39:42;100230.66;;;20.51;nan
46408;BME280;32110;45.724;21.276;2023-07-31T05:42:07;100234.63;;;20.53;nan
46408;BME280;32110;45.724;21.276;2023-07-31T05:44:33;100229.00;;;20.55;nan
46408;BME280;32110;45.724;21.276;2023-07-31T05:46:58;100241.03;;;20.71;nan
46408;BME280;32110;45.724;21.276;2023-07-31T05:49:23;100241.13;;;20.80;nan
46408;BME280;32110;45.724;21.276;2023-07-31T05:51:49;100236.25;;;20.82;nan
46408;BME280;32110;45.724;21.276;2023-07-31T05:54:14;100252.13;;;20.92;nan
46408;BME280;32110;45.724;21.276;2023-07-31T05:56:39;100240.34;;;20.93;nan
46408;BME280;32110;45.724;21.276;2023-07-31T05:59:05;100235.47;;;20.95;nan
46408;BME280;32110;45.724;21.276;2023-07-31T06:01:30;100242.81;;;21.03;nan
46408;BME280;32110;45.724;21.276;2023-07-31T06:03:55;100258.97;;;21.12;nan
46408;BME280;32110;45.724;21.276;2023-07-31T06:06:21;100245.69;;;21.07;nan
46408;BME280;32110;45.724;21.276;2023-07-31T06:08:46;100262.72;;;21.11;nan
46408;BME280;32110;45.724;21.276;2023-07-31T06:11:12;100270.38;;;21.18;nan
46408;BME280;32110;45.724;21.276;2023-07-31T06:13:37;100259.38;;;21.19;nan
46408;BME280;32110;45.724;21.276;2023-07-31T06:16:02;100225.34;;;21.06;nan
46408;BME280;32110;45.724;21.276;2023-07-31T06:18:32;100261.53;;;21.31;nan
46408;BME280;32110;45.724;21.276;2023-07-31T06:20:57;100254.28;;;21.32;nan
46408;BME280;32110;45.724;21.276;2023-07-31T06:23:22;100274.25;;;21.39;nan
46408;BME280;32110;45.724;21.276;2023-07-31T06:25:48;100246.75;;;21.34;nan
46408;BME280;32110;45.724;21.276;2023-07-31T06:28:13;100261.09;;;21.52;nan
46408;BME280;32110;45.724;21.276;2023-07-31T06:30:39;100256.13;;;21.59;nan
46408;BME280;32110;45.724;21.276;2023-07-31T06:33:04;100290.16;;;21.95;nan
46408;BME280;32110;45.724;21.276;2023-07-31T06:35:29;100256.28;;;21.76;nan
46408;BME280;32110;45.724;21.276;2023-07-31T06:37:55;100246.78;;;21.70;nan
46408;BME280;32110;45.724;21.276;2023-07-31T06:40:21;100241.81;;;21.63;nan
46408;BME280;32110;45.724;21.276;2023-07-31T06:42:47;100248.09;;;21.59;nan
46408;BME280;32110;45.724;21.276;2023-07-31T06:45:12;100260.88;;;21.62;nan
46408;BME280;32110;45.724;21.276;2023-07-31T06:47:38;100265.03;;;21.68;nan
46408;BME280;32110;45.724;21.276;2023-07-31T06:50:04;100239.44;;;21.62;nan
46408;BME280;32110;45.724;21.276;2023-07-31T06:52:30;100262.13;;;21.78;nan
46408;BME280;32110;45.724;21.276;2023-07-31T06:55:22;100256.47;;;21.80;nan
46408;BME280;32110;45.724;21.276;2023-07-31T06:57:49;100249.72;;;21.82;nan
46408;BME280;32110;45.724;21.276;2023-07-31T07:00:16;100242.28;;;21.79;nan
46408;BME280;32110;45.724;21.276;2023-07-31T07:02:41;100251.91;;;21.80;nan
46408;BME280;32110;45.724;21.276;2023-07-31T07:05:07;100249.03;;;21.77;nan
46408;BME280;32110;45.724;21.276;2023-07-31T07:07:33;100249.22;;;21.80;nan
46408;BME280;32110;45.724;21.276;2023-07-31T07:09:59;100246.25;;;21.82;nan
46408;BME280;32110;45.724;21.276;2023-07-31T07:12:25;100244.34;;;21.82;nan
46408;BME280;32110;45.724;21.276;2023-07-31T07:14:50;100241.13;;;21.72;nan
46408;BME280;32110;45.724;21.276;2023-07-31T07:17:18;100256.75;;;21.78;nan
46408;BME280;32110;45.724;21.276;2023-07-31T07:19:44;100244.59;;;21.72;nan
46408;BME280;32110;45.724;21.276;2023-07-31T07:22:09;100241.97;;;21.81;nan
46408;BME280;32110;45.724;21.276;2023-07-31T07:24:35;100248.97;;;21.91;nan
46408;BME280;32110;45.724;21.276;2023-07-31T07:27:00;100251.44;;;22.01;nan
46408;BME280;32110;45.724;21.276;2023-07-31T07:29:26;100237.28;;;22.09;nan
46408;BME280;32110;45.724;21.276;2023-07-31T07:31:51;100233.88;;;22.17;nan
46408;BME280;32110;45.724;21.276;2023-07-31T07:34:17;100246.28;;;22.36;nan
46408;BME280;32110;45.724;21.276;2023-07-31T07:36:42;100237.47;;;22.35;nan
46408;BME280;32110;45.724;21.276;2023-07-31T07:39:09;100256.28;;;22.44;nan
46408;BME280;32110;45.724;21.276;2023-07-31T07:41:35;100242.69;;;22.40;nan
46408;BME280;32110;45.724;21.276;2023-07-31T07:44:00;100248.25;;;22.44;nan
46408;BME280;32110;45.724;21.276;2023-07-31T07:46:25;100245.91;;;22.51;nan
46408;BME280;32110;45.724;21.276;2023-07-31T07:48:51;100239.00;;;22.59;nan
46408;BME280;32110;45.724;21.276;2023-07-31T07:51:16;100233.00;;;22.62;nan
46408;BME280;32110;45.724;21.276;2023-07-31T07:53:42;100241.59;;;22.72;nan
46408;BME280;32110;45.724;21.276;2023-07-31T07:56:07;100240.66;;;22.77;nan
46408;BME280;32110;45.724;21.276;2023-07-31T07:58:32;100231.03;;;22.85;nan
46408;BME280;32110;45.724;21.276;2023-07-31T08:00:58;100238.94;;;22.90;nan
46408;BME280;32110;45.724;21.276;2023-07-31T08:03:23;100242.59;;;22.94;nan
46408;BME280;32110;45.724;21.276;2023-07-31T08:05:49;100252.44;;;23.07;nan
46408;BME280;32110;45.724;21.276;2023-07-31T08:08:15;100248.34;;;23.10;nan
46408;BME280;32110;45.724;21.276;2023-07-31T08:10:44;100252.03;;;23.23;nan
46408;BME280;32110;45.724;21.276;2023-07-31T08:13:11;100239.69;;;23.22;nan
46408;BME280;32110;45.724;21.276;2023-07-31T08:15:37;100242.41;;;23.30;nan
46408;BME280;32110;45.724;21.276;2023-07-31T08:18:02;100242.72;;;23.38;nan
46408;BME280;32110;45.724;21.276;2023-07-31T08:20:27;100227.69;;;23.28;nan
46408;BME280;32110;45.724;21.276;2023-07-31T08:22:53;100242.88;;;23.32;nan
46408;BME280;32110;45.724;21.276;2023-07-31T08:25:18;100251.25;;;23.40;nan
46408;BME280;32110;45.724;21.276;2023-07-31T08:27:44;100257.09;;;23.50;nan
46408;BME280;32110;45.724;21.276;2023-07-31T08:30:11;100205.88;;;23.29;nan
46408;BME280;32110;45.724;21.276;2023-07-31T08:32:36;100235.94;;;23.57;nan
46408;BME280;32110;45.724;21.276;2023-07-31T08:35:02;100254.94;;;23.78;nan
46408;BME280;32110;45.724;21.276;2023-07-31T08:37:28;100248.13;;;23.81;nan
46408;BME280;32110;45.724;21.276;2023-07-31T08:39:53;100250.97;;;23.85;nan
46408;BME280;32110;45.724;21.276;2023-07-31T08:42:20;100247.66;;;23.88;nan
46408;BME280;32110;45.724;21.276;2023-07-31T08:44:46;100251.44;;;23.95;nan
46408;BME280;32110;45.724;21.276;2023-07-31T08:47:12;100239.44;;;23.93;nan
46408;BME280;32110;45.724;21.276;2023-07-31T08:49:38;100257.44;;;24.01;nan
46408;BME280;32110;45.724;21.276;2023-07-31T08:52:06;100248.41;;;24.06;nan
46408;BME280;32110;45.724;21.276;2023-07-31T08:54:31;100252.06;;;24.10;nan
46408;BME280;32110;45.724;21.276;2023-07-31T08:56:58;100249.38;;;24.18;nan
46408;BME280;32110;45.724;21.276;2023-07-31T08:59:27;100249.19;;;24.24;nan
46408;BME280;32110;45.724;21.276;2023-07-31T09:01:54;100264.03;;;24.30;nan
46408;BME280;32110;45.724;21.276;2023-07-31T09:04:21;100247.72;;;24.35;nan
46408;BME280;32110;45.724;21.276;2023-07-31T09:06:48;100255.00;;;24.43;nan
46408;BME280;32110;45.724;21.276;2023-07-31T09:09:13;100252.75;;;24.54;nan
46408;BME280;32110;45.724;21.276;2023-07-31T09:11:40;100243.41;;;24.60;nan
46408;BME280;32110;45.724;21.276;2023-07-31T09:14:05;100241.81;;;24.59;nan
46408;BME280;32110;45.724;21.276;2023-07-31T09:16:34;100237.81;;;24.74;nan
46408;BME280;32110;45.724;21.276;2023-07-31T09:18:59;100241.38;;;24.87;nan
46408;BME280;32110;45.724;21.276;2023-07-31T09:21:27;100232.34;;;24.82;nan
46408;BME280;32110;45.724;21.276;2023-07-31T09:23:53;100231.53;;;24.91;nan
46408;BME280;32110;45.724;21.276;2023-07-31T09:28:55;100234.91;;;25.17;nan
46408;BME280;32110;45.724;21.276;2023-07-31T09:31:40;100231.25;;;25.13;nan
46408;BME280;32110;45.724;21.276;2023-07-31T09:34:10;100212.22;;;24.89;nan
46408;BME280;32110;45.724;21.276;2023-07-31T09:36:46;100222.81;;;24.94;nan
46408;BME280;32110;45.724;21.276;2023-07-31T09:39:14;100224.84;;;24.97;nan
46408;BME280;32110;45.724;21.276;2023-07-31T09:41:53;100215.16;;;25.04;nan
46408;BME280;32110;45.724;21.276;2023-07-31T09:44:18;100211.69;;;25.25;nan
46408;BME280;32110;45.724;21.276;2023-07-31T09:46:44;100204.66;;;25.33;nan
46408;BME280;32110;45.724;21.276;2023-07-31T09:49:10;100210.09;;;25.45;nan
46408;BME280;32110;45.724;21.276;2023-07-31T09:51:38;100211.88;;;25.62;nan
46408;BME280;32110;45.724;21.276;2023-07-31T09:54:16;100191.69;;;25.68;nan
46408;BME280;32110;45.724;21.276;2023-07-31T09:56:47;100210.03;;;25.75;nan
46408;BME280;32110;45.724;21.276;2023-07-31T09:59:18;100192.38;;;25.77;nan
46408;BME280;32110;45.724;21.276;2023-07-31T10:01:45;100210.66;;;25.93;nan
46408;BME280;32110;45.724;21.276;2023-07-31T10:04:12;100204.94;;;25.94;nan
46408;BME280;32110;45.724;21.276;2023-07-31T10:06:39;100205.47;;;25.87;nan
46408;BME280;32110;45.724;21.276;2023-07-31T10:09:07;100204.47;;;25.92;nan
46408;BME280;32110;45.724;21.276;2023-07-31T10:11:38;100209.81;;;26.01;nan
46408;BME280;32110;45.724;21.276;2023-07-31T10:14:07;100193.47;;;25.97;nan
46408;BME280;32110;45.724;21.276;2023-07-31T10:16:33;100212.97;;;26.15;nan
46408;BME280;32110;45.724;21.276;2023-07-31T10:19:00;100191.63;;;26.10;nan
46408;BME280;32110;45.724;21.276;2023-07-31T10:21:26;100211.06;;;26.16;nan
46408;BME280;32110;45.724;21.276;2023-07-31T10:23:53;100198.56;;;26.11;nan
46408;BME280;32110;45.724;21.276;2023-07-31T10:26:22;100213.53;;;26.21;nan
46408;BME280;32110;45.724;21.276;2023-07-31T10:28:49;100211.16;;;26.19;nan
46408;BME280;32110;45.724;21.276;2023-07-31T10:31:16;100196.78;;;26.15;nan
46408;BME280;32110;45.724;21.276;2023-07-31T10:33:42;100208.94;;;26.21;nan
46408;BME280;32110;45.724;21.276;2023-07-31T10:36:16;100211.41;;;26.26;nan
46408;BME280;32110;45.724;21.276;2023-07-31T10:38:42;100194.66;;;26.33;nan
46408;BME280;32110;45.724;21.276;2023-07-31T10:41:11;100202.53;;;26.50;nan
46408;BME280;32110;45.724;21.276;2023-07-31T10:43:39;100196.03;;;26.51;nan
46408;BME280;32110;45.724;21.276;2023-07-31T10:46:09;100206.63;;;26.57;nan
46408;BME280;32110;45.724;21.276;2023-07-31T10:48:38;100195.28;;;26.63;nan
46408;BME280;32110;45.724;21.276;2023-07-31T10:51:08;100191.81;;;26.63;nan
46408;BME280;32110;45.724;21.276;2023-07-31T10:53:34;100200.56;;;26.84;nan
46408;BME280;32110;45.724;21.276;2023-07-31T10:56:01;100196.50;;;26.90;nan
46408;BME280;32110;45.724;21.276;2023-07-31T10:58:27;100189.63;;;26.93;nan
46408;BME280;32110;45.724;21.276;2023-07-31T11:00:56;100188.41;;;26.78;nan
46408;BME280;32110;45.724;21.276;2023-07-31T11:03:48;100197.28;;;26.79;nan
46408;BME280;32110;45.724;21.276;2023-07-31T11:06:17;100181.63;;;26.72;nan
46408;BME280;32110;45.724;21.276;2023-07-31T11:08:45;100191.34;;;26.73;nan
46408;BME280;32110;45.724;21.276;2023-07-31T11:11:13;100196.50;;;26.66;nan
46408;BME280;32110;45.724;21.276;2023-07-31T11:13:47;100187.25;;;26.79;nan
46408;BME280;32110;45.724;21.276;2023-07-31T11:16:16;100177.13;;;26.88;nan
46408;BME280;32110;45.724;21.276;2023-07-31T11:18:43;100176.22;;;26.97;nan
46408;BME280;32110;45.724;21.276;2023-07-31T11:21:15;100181.25;;;27.10;nan
46408;BME280;32110;45.724;21.276;2023-07-31T11:23:45;100169.75;;;27.13;nan
46408;BME280;32110;45.724;21.276;2023-07-31T11:26:11;100173.03;;;27.19;nan
46408;BME280;32110;45.724;21.276;2023-07-31T11:28:37;100176.28;;;27.12;nan
46408;BME280;32110;45.724;21.276;2023-07-31T11:31:04;100176.06;;;27.05;nan
46408;BME280;32110;45.724;21.276;2023-07-31T11:33:30;100182.28;;;26.93;nan
46408;BME280;32110;45.724;21.276;2023-07-31T11:35:56;100176.00;;;26.89;nan
46408;BME280;32110;45.724;21.276;2023-07-31T11:38:39;100176.09;;;26.93;nan
46408;BME280;32110;45.724;21.276;2023-07-31T11:41:05;100179.59;;;27.06;nan
46408;BME280;32110;45.724;21.276;2023-07-31T11:43:31;100166.16;;;27.09;nan
46408;BME280;32110;45.724;21.276;2023-07-31T11:45:59;100168.06;;;27.21;nan
46408;BME280;32110;45.724;21.276;2023-07-31T11:48:26;100139.78;;;27.19;nan
46408;BME280;32110;45.724;21.276;2023-07-31T11:50:53;100156.53;;;27.36;nan
46408;BME280;32110;45.724;21.276;2023-07-31T11:53:36;100139.91;;;27.50;nan
46408;BME280;32110;45.724;21.276;2023-07-31T11:56:03;100159.78;;;27.70;nan
46408;BME280;32110;45.724;21.276;2023-07-31T11:58:32;100158.38;;;27.76;nan
46408;BME280;32110;45.724;21.276;2023-07-31T12:00:58;100156.81;;;27.75;nan
46408;BME280;32110;45.724;21.276;2023-07-31T12:03:25;100153.47;;;27.82;nan
46408;BME280;32110;45.724;21.276;2023-07-31T12:05:50;100153.94;;;27.84;nan
46408;BME280;32110;45.724;21.276;2023-07-31T12:08:16;100153.97;;;28.00;nan
46408;BME280;32110;45.724;21.276;2023-07-31T12:10:42;100153.00;;;28.08;nan
46408;BME280;32110;45.724;21.276;2023-07-31T12:13:09;100145.94;;;28.19;nan
46408;BME280;32110;45.724;21.276;2023-07-31T12:15:43;100149.09;;;28.21;nan
46408;BME280;32110;45.724;21.276;2023-07-31T12:18:19;100131.69;;;28.23;nan
46408;BME280;32110;45.724;21.276;2023-07-31T12:20:53;100134.13;;;28.28;nan
46408;BME280;32110;45.724;21.276;2023-07-31T12:23:21;100135.88;;;28.36;nan
46408;BME280;32110;45.724;21.276;2023-07-31T12:26:13;100132.84;;;28.37;nan
46408;BME280;32110;45.724;21.276;2023-07-31T12:28:45;100132.66;;;28.46;nan
46408;BME280;32110;45.724;21.276;2023-07-31T12:31:14;100129.78;;;28.55;nan
46408;BME280;32110;45.724;21.276;2023-07-31T12:33:41;100125.41;;;28.50;nan
46408;BME280;32110;45.724;21.276;2023-07-31T12:36:09;100112.47;;;28.43;nan
46408;BME280;32110;45.724;21.276;2023-07-31T12:38:34;100124.34;;;28.55;nan
46408;BME280;32110;45.724;21.276;2023-07-31T12:41:00;100124.06;;;28.60;nan
46408;BME280;32110;45.724;21.276;2023-07-31T12:43:25;100131.94;;;28.65;nan
46408;BME280;32110;45.724;21.276;2023-07-31T12:45:51;100114.16;;;28.68;nan
46408;BME280;32110;45.724;21.276;2023-07-31T12:48:16;100115.25;;;28.82;nan
46408;BME280;32110;45.724;21.276;2023-07-31T12:50:42;100109.47;;;28.65;nan
46408;BME280;32110;45.724;21.276;2023-07-31T12:53:07;100120.91;;;28.74;nan
46408;BME280;32110;45.724;21.276;2023-07-31T12:55:33;100122.81;;;28.73;nan
46408;BME280;32110;45.724;21.276;2023-07-31T12:58:00;100117.03;;;28.75;nan
46408;BME280;32110;45.724;21.276;2023-07-31T13:00:26;100108.00;;;28.87;nan
46408;BME280;32110;45.724;21.276;2023-07-31T13:02:51;100103.50;;;28.75;nan
46408;BME280;32110;45.724;21.276;2023-07-31T13:05:17;100112.50;;;28.79;nan